Welling, Oklahoma
Current Conditions -  °F | °C
As of 12:15 AM on Saturday 25 Oct 2014 (Local Time) from KTQH Reporting Station
Haze Haze  
Wind Chill: 57°   Ceiling: Unl
Heat Index: 57°   Visibility: 5mi
Dew Point: 55°   Wind: 0mph
Humidity: 94%   Direction: NA
Pressure: 30.09"   Gusts: NA
Location:  35.88°N, 94.9°W
Report Text: KTQH 250515Z AUTO 00000KT 5SM BR CLR 14/13 A3009 RMK AO2
Loading
Personal Weather Stations






























Interactive Weather Map
Tropical Storm Tracking
New forecast layout! Learn more

10-Day Weather Forecast

Advertisements
Track Severe Weather on mobile